sensor_id;sensor_type;location;lat;lon;timestamp;pressure;altitude;pressure_sealevel;temperature;humidity
69219;BME280;56232;53.384;-2.732;2023-03-01T00:02:02;103249.72;;;6.04;39.45
69219;BME280;56232;53.384;-2.732;2023-03-01T00:04:28;103252.87;;;5.97;39.66
69219;BME280;56232;53.384;-2.732;2023-03-01T00:06:53;103250.81;;;5.17;39.35
69219;BME280;56232;53.384;-2.732;2023-03-01T00:09:19;103250.97;;;6.13;39.32
69219;BME280;56232;53.384;-2.732;2023-03-01T00:11:45;103248.90;;;5.61;39.23
69219;BME280;56232;53.384;-2.732;2023-03-01T00:14:11;103247.48;;;5.52;39.11
69219;BME280;56232;53.384;-2.732;2023-03-01T00:16:39;103248.98;;;6.00;39.05
69219;BME280;56232;53.384;-2.732;2023-03-01T00:19:02;103248.12;;;5.62;39.38
69219;BME280;56232;53.384;-2.732;2023-03-01T00:21:28;103244.16;;;4.89;39.47
69219;BME280;56232;53.384;-2.732;2023-03-01T00:23:55;103249.29;;;4.96;39.36
69219;BME280;56232;53.384;-2.732;2023-03-01T00:26:21;103252.71;;;4.89;39.42
69219;BME280;56232;53.384;-2.732;2023-03-01T00:28:46;103249.17;;;4.81;39.29
69219;BME280;56232;53.384;-2.732;2023-03-01T00:31:14;103247.04;;;4.28;39.28
69219;BME280;56232;53.384;-2.732;2023-03-01T00:33:37;103243.68;;;5.54;38.97
69219;BME280;56232;53.384;-2.732;2023-03-01T00:36:04;103242.37;;;5.66;38.80
69219;BME280;56232;53.384;-2.732;2023-03-01T00:38:29;103231.44;;;5.71;38.58
69219;BME280;56232;53.384;-2.732;2023-03-01T00:40:54;103227.55;;;5.14;38.37
69219;BME280;56232;53.384;-2.732;2023-03-01T00:43:20;103227.67;;;5.12;38.26
69219;BME280;56232;53.384;-2.732;2023-03-01T00:45:46;103229.18;;;5.26;38.36
69219;BME280;56232;53.384;-2.732;2023-03-01T00:48:12;103228.99;;;6.08;38.23
69219;BME280;56232;53.384;-2.732;2023-03-01T00:50:37;103226.99;;;5.69;38.09
69219;BME280;56232;53.384;-2.732;2023-03-01T00:53:03;103224.57;;;6.30;37.91
69219;BME280;56232;53.384;-2.732;2023-03-01T00:55:29;103221.22;;;5.25;37.93
69219;BME280;56232;53.384;-2.732;2023-03-01T00:57:54;103218.70;;;5.73;37.91
69219;BME280;56232;53.384;-2.732;2023-03-01T01:00:20;103217.68;;;6.15;38.04
69219;BME280;56232;53.384;-2.732;2023-03-01T01:02:46;103217.77;;;5.41;38.28
69219;BME280;56232;53.384;-2.732;2023-03-01T01:05:12;103214.74;;;5.60;38.31
69219;BME280;56232;53.384;-2.732;2023-03-01T01:07:38;103213.51;;;5.03;38.36
69219;BME280;56232;53.384;-2.732;2023-03-01T01:10:04;103206.91;;;5.94;38.58
69219;BME280;56232;53.384;-2.732;2023-03-01T01:12:29;103211.08;;;5.57;38.99
69219;BME280;56232;53.384;-2.732;2023-03-01T01:14:55;103207.80;;;4.97;39.12
69219;BME280;56232;53.384;-2.732;2023-03-01T01:17:21;103204.96;;;4.86;39.28
69219;BME280;56232;53.384;-2.732;2023-03-01T01:19:46;103202.08;;;5.01;39.16
69219;BME280;56232;53.384;-2.732;2023-03-01T01:22:12;103201.98;;;5.75;39.03
69219;BME280;56232;53.384;-2.732;2023-03-01T01:29:31;103208.31;;;5.78;38.60
69219;BME280;56232;53.384;-2.732;2023-03-01T01:31:55;103205.83;;;6.15;38.05
69219;BME280;56232;53.384;-2.732;2023-03-01T01:34:22;103209.99;;;6.57;38.17
69219;BME280;56232;53.384;-2.732;2023-03-01T01:36:48;103213.31;;;5.57;38.26
69219;BME280;56232;53.384;-2.732;2023-03-01T01:39:13;103209.99;;;5.25;38.15
69219;BME280;56232;53.384;-2.732;2023-03-01T01:41:40;103209.70;;;6.27;37.83
69219;BME280;56232;53.384;-2.732;2023-03-01T01:44:10;103204.95;;;5.82;37.94
69219;BME280;56232;53.384;-2.732;2023-03-01T01:46:31;103202.99;;;6.73;37.86
69219;BME280;56232;53.384;-2.732;2023-03-01T01:49:00;103198.77;;;5.43;38.06
69219;BME280;56232;53.384;-2.732;2023-03-01T01:51:25;103195.89;;;5.30;38.08
69219;BME280;56232;53.384;-2.732;2023-03-01T01:53:51;103195.95;;;5.64;38.20
69219;BME280;56232;53.384;-2.732;2023-03-01T01:56:14;103184.87;;;5.02;38.29
69219;BME280;56232;53.384;-2.732;2023-03-01T01:58:41;103181.05;;;5.94;38.22
69219;BME280;56232;53.384;-2.732;2023-03-01T02:01:05;103179.58;;;5.48;38.57
69219;BME280;56232;53.384;-2.732;2023-03-01T02:03:32;103181.35;;;5.42;38.99
69219;BME280;56232;53.384;-2.732;2023-03-01T02:06:00;103181.66;;;4.72;39.23
69219;BME280;56232;53.384;-2.732;2023-03-01T02:08:25;103187.11;;;4.70;39.21
69219;BME280;56232;53.384;-2.732;2023-03-01T02:10:49;103184.14;;;4.70;39.21
69219;BME280;56232;53.384;-2.732;2023-03-01T02:13:14;103177.99;;;5.12;39.31
69219;BME280;56232;53.384;-2.732;2023-03-01T02:15:41;103179.77;;;4.42;39.32
69219;BME280;56232;53.384;-2.732;2023-03-01T02:18:07;103184.63;;;4.31;39.48
69219;BME280;56232;53.384;-2.732;2023-03-01T02:20:35;103185.40;;;4.77;39.52
69219;BME280;56232;53.384;-2.732;2023-03-01T02:22:57;103179.98;;;5.33;39.61
69219;BME280;56232;53.384;-2.732;2023-03-01T02:25:29;103176.37;;;5.17;39.73
69219;BME280;56232;53.384;-2.732;2023-03-01T02:27:54;103170.41;;;3.75;40.02
69219;BME280;56232;53.384;-2.732;2023-03-01T02:30:15;103163.23;;;4.19;40.05
69219;BME280;56232;53.384;-2.732;2023-03-01T02:32:40;103159.06;;;4.61;40.14
69219;BME280;56232;53.384;-2.732;2023-03-01T02:35:06;103151.92;;;4.33;40.35
69219;BME280;56232;53.384;-2.732;2023-03-01T02:37:32;103152.89;;;4.39;40.30
69219;BME280;56232;53.384;-2.732;2023-03-01T02:40:02;103152.27;;;4.12;40.41
69219;BME280;56232;53.384;-2.732;2023-03-01T02:42:26;103154.37;;;3.61;40.26
69219;BME280;56232;53.384;-2.732;2023-03-01T02:44:49;103158.32;;;4.14;40.22
69219;BME280;56232;53.384;-2.732;2023-03-01T02:47:15;103155.83;;;3.58;40.13
69219;BME280;56232;53.384;-2.732;2023-03-01T02:49:41;103154.50;;;4.23;40.01
69219;BME280;56232;53.384;-2.732;2023-03-01T02:52:16;103148.82;;;4.40;39.97
69219;BME280;56232;53.384;-2.732;2023-03-01T02:54:38;103145.91;;;4.67;39.70
69219;BME280;56232;53.384;-2.732;2023-03-01T02:56:59;103144.12;;;4.17;39.50
69219;BME280;56232;53.384;-2.732;2023-03-01T02:59:27;103144.91;;;3.90;39.16
69219;BME280;56232;53.384;-2.732;2023-03-01T03:01:50;103142.17;;;3.92;39.09
69219;BME280;56232;53.384;-2.732;2023-03-01T03:04:17;103140.52;;;4.47;39.11
69219;BME280;56232;53.384;-2.732;2023-03-01T03:06:41;103138.79;;;4.02;39.01
69219;BME280;56232;53.384;-2.732;2023-03-01T03:09:07;103132.38;;;4.57;39.10
69219;BME280;56232;53.384;-2.732;2023-03-01T03:11:33;103128.14;;;4.44;38.92
69219;BME280;56232;53.384;-2.732;2023-03-01T03:13:59;103128.52;;;5.08;38.65
69219;BME280;56232;53.384;-2.732;2023-03-01T03:16:24;103129.83;;;4.75;38.68
69219;BME280;56232;53.384;-2.732;2023-03-01T03:18:50;103131.14;;;5.06;38.57
69219;BME280;56232;53.384;-2.732;2023-03-01T03:21:16;103132.75;;;4.77;38.43
69219;BME280;56232;53.384;-2.732;2023-03-01T03:23:42;103131.10;;;5.05;37.97
69219;BME280;56232;53.384;-2.732;2023-03-01T03:26:07;103132.67;;;5.09;37.85
69219;BME280;56232;53.384;-2.732;2023-03-01T03:28:34;103127.34;;;5.28;37.68
69219;BME280;56232;53.384;-2.732;2023-03-01T03:31:00;103130.03;;;5.97;37.32
69219;BME280;56232;53.384;-2.732;2023-03-01T03:33:25;103124.48;;;5.48;37.49
69219;BME280;56232;53.384;-2.732;2023-03-01T03:35:50;103123.25;;;5.56;37.21
69219;BME280;56232;53.384;-2.732;2023-03-01T03:38:18;103117.72;;;5.50;37.32
69219;BME280;56232;53.384;-2.732;2023-03-01T03:40:44;103112.11;;;6.21;37.36
69219;BME280;56232;53.384;-2.732;2023-03-01T03:43:11;103113.59;;;5.08;37.05
69219;BME280;56232;53.384;-2.732;2023-03-01T03:45:34;103114.89;;;4.96;37.04
69219;BME280;56232;53.384;-2.732;2023-03-01T03:48:00;103112.29;;;5.07;37.20
69219;BME280;56232;53.384;-2.732;2023-03-01T03:50:26;103115.83;;;5.88;37.16
69219;BME280;56232;53.384;-2.732;2023-03-01T03:52:51;103116.15;;;5.62;36.93
69219;BME280;56232;53.384;-2.732;2023-03-01T03:55:17;103115.58;;;5.82;36.84
69219;BME280;56232;53.384;-2.732;2023-03-01T03:57:43;103112.66;;;6.00;36.82
69219;BME280;56232;53.384;-2.732;2023-03-01T04:00:12;103118.10;;;6.28;36.76
69219;BME280;56232;53.384;-2.732;2023-03-01T04:02:34;103120.20;;;5.89;36.64
69219;BME280;56232;53.384;-2.732;2023-03-01T04:05:00;103114.02;;;6.52;36.68
69219;BME280;56232;53.384;-2.732;2023-03-01T04:07:25;103115.04;;;6.56;36.57
69219;BME280;56232;53.384;-2.732;2023-03-01T04:09:51;103112.94;;;6.51;36.58
69219;BME280;56232;53.384;-2.732;2023-03-01T04:12:17;103111.02;;;6.35;36.56
69219;BME280;56232;53.384;-2.732;2023-03-01T04:14:43;103107.80;;;5.13;36.29
69219;BME280;56232;53.384;-2.732;2023-03-01T04:17:09;103107.55;;;6.72;36.48
69219;BME280;56232;53.384;-2.732;2023-03-01T04:19:34;103104.95;;;6.13;36.33
69219;BME280;56232;53.384;-2.732;2023-03-01T04:22:00;103098.39;;;5.93;36.32
69219;BME280;56232;53.384;-2.732;2023-03-01T04:24:26;103084.95;;;5.67;36.54
69219;BME280;56232;53.384;-2.732;2023-03-01T04:26:51;103075.49;;;5.29;36.42
69219;BME280;56232;53.384;-2.732;2023-03-01T04:29:17;103071.14;;;4.93;36.96
69219;BME280;56232;53.384;-2.732;2023-03-01T04:31:43;103068.85;;;5.34;37.04
69219;BME280;56232;53.384;-2.732;2023-03-01T04:34:09;103067.60;;;5.79;37.23
69219;BME280;56232;53.384;-2.732;2023-03-01T04:36:34;103064.92;;;4.81;37.40
69219;BME280;56232;53.384;-2.732;2023-03-01T04:39:00;103066.29;;;5.97;37.36
69219;BME280;56232;53.384;-2.732;2023-03-01T04:41:26;103059.85;;;6.00;37.42
69219;BME280;56232;53.384;-2.732;2023-03-01T04:43:52;103066.19;;;5.39;37.30
69219;BME280;56232;53.384;-2.732;2023-03-01T04:46:19;103067.80;;;5.36;37.37
69219;BME280;56232;53.384;-2.732;2023-03-01T04:48:44;103069.89;;;4.90;37.31
69219;BME280;56232;53.384;-2.732;2023-03-01T04:51:09;103077.36;;;6.13;37.12
69219;BME280;56232;53.384;-2.732;2023-03-01T04:53:35;103080.10;;;4.97;37.16
69219;BME280;56232;53.384;-2.732;2023-03-01T04:56:01;103082.66;;;5.61;37.39
69219;BME280;56232;53.384;-2.732;2023-03-01T04:58:27;103084.96;;;5.05;37.85
69219;BME280;56232;53.384;-2.732;2023-03-01T05:00:53;103083.05;;;5.74;38.52
69219;BME280;56232;53.384;-2.732;2023-03-01T05:03:18;103079.77;;;4.53;38.83
69219;BME280;56232;53.384;-2.732;2023-03-01T05:05:46;103077.59;;;5.38;39.20
69219;BME280;56232;53.384;-2.732;2023-03-01T05:08:10;103071.17;;;4.47;39.43
69219;BME280;56232;53.384;-2.732;2023-03-01T05:10:36;103077.29;;;4.84;39.72
69219;BME280;56232;53.384;-2.732;2023-03-01T05:13:02;103080.26;;;3.70;39.97
69219;BME280;56232;53.384;-2.732;2023-03-01T05:15:29;103082.41;;;4.77;40.13
69219;BME280;56232;53.384;-2.732;2023-03-01T05:17:54;103080.11;;;3.65;39.78
69219;BME280;56232;53.384;-2.732;2023-03-01T05:20:19;103079.07;;;3.61;39.90
69219;BME280;56232;53.384;-2.732;2023-03-01T05:22:45;103072.90;;;4.68;39.72
69219;BME280;56232;53.384;-2.732;2023-03-01T05:25:10;103067.96;;;3.36;39.97
69219;BME280;56232;53.384;-2.732;2023-03-01T05:27:36;103064.40;;;3.77;39.79
69219;BME280;56232;53.384;-2.732;2023-03-01T05:30:03;103056.35;;;4.37;39.97
69219;BME280;56232;53.384;-2.732;2023-03-01T05:32:28;103057.50;;;4.41;39.94
69219;BME280;56232;53.384;-2.732;2023-03-01T05:34:54;103058.00;;;4.58;40.04
69219;BME280;56232;53.384;-2.732;2023-03-01T05:37:19;103056.04;;;4.73;39.76
69219;BME280;56232;53.384;-2.732;2023-03-01T05:39:45;103058.22;;;4.33;39.65
69219;BME280;56232;53.384;-2.732;2023-03-01T05:42:11;103055.32;;;4.61;39.51
69219;BME280;56232;53.384;-2.732;2023-03-01T05:44:37;103056.70;;;4.44;39.02
69219;BME280;56232;53.384;-2.732;2023-03-01T05:47:03;103059.04;;;4.79;38.75
69219;BME280;56232;53.384;-2.732;2023-03-01T05:49:28;103061.29;;;4.18;38.67
69219;BME280;56232;53.384;-2.732;2023-03-01T05:51:55;103067.16;;;4.66;39.00
69219;BME280;56232;53.384;-2.732;2023-03-01T05:54:20;103068.22;;;4.97;39.02
69219;BME280;56232;53.384;-2.732;2023-03-01T05:56:45;103068.95;;;4.32;39.16
69219;BME280;56232;53.384;-2.732;2023-03-01T05:59:12;103070.22;;;4.77;39.30
69219;BME280;56232;53.384;-2.732;2023-03-01T06:01:37;103071.97;;;5.29;39.35
69219;BME280;56232;53.384;-2.732;2023-03-01T06:04:04;103072.72;;;4.97;39.66
69219;BME280;56232;53.384;-2.732;2023-03-01T06:06:29;103074.88;;;3.85;39.87
69219;BME280;56232;53.384;-2.732;2023-03-01T06:08:55;103074.79;;;4.93;40.17
69219;BME280;56232;53.384;-2.732;2023-03-01T06:11:21;103074.70;;;4.24;40.29
69219;BME280;56232;53.384;-2.732;2023-03-01T06:13:46;103078.53;;;3.96;40.53
69219;BME280;56232;53.384;-2.732;2023-03-01T06:16:12;103080.36;;;4.37;40.66
69219;BME280;56232;53.384;-2.732;2023-03-01T06:18:38;103084.68;;;4.35;40.84
69219;BME280;56232;53.384;-2.732;2023-03-01T06:21:04;103083.41;;;4.36;40.73
69219;BME280;56232;53.384;-2.732;2023-03-01T06:23:29;103082.37;;;3.67;40.91
69219;BME280;56232;53.384;-2.732;2023-03-01T06:25:55;103081.17;;;4.40;41.20
69219;BME280;56232;53.384;-2.732;2023-03-01T06:28:21;103080.21;;;3.48;40.89
69219;BME280;56232;53.384;-2.732;2023-03-01T06:30:47;103082.05;;;4.76;41.15
69219;BME280;56232;53.384;-2.732;2023-03-01T06:33:12;103077.93;;;4.35;41.30
69219;BME280;56232;53.384;-2.732;2023-03-01T06:35:38;103080.11;;;4.10;41.18
69219;BME280;56232;53.384;-2.732;2023-03-01T06:38:04;103082.69;;;5.47;41.10
69219;BME280;56232;53.384;-2.732;2023-03-01T06:40:31;103083.41;;;5.51;41.22
69219;BME280;56232;53.384;-2.732;2023-03-01T06:42:55;103086.02;;;4.45;41.43
69219;BME280;56232;53.384;-2.732;2023-03-01T06:45:21;103085.38;;;4.44;41.10
69219;BME280;56232;53.384;-2.732;2023-03-01T06:47:47;103086.75;;;4.36;41.27
69219;BME280;56232;53.384;-2.732;2023-03-01T06:50:14;103085.84;;;4.78;41.96
69219;BME280;56232;53.384;-2.732;2023-03-01T06:52:39;103083.66;;;4.89;41.96
69219;BME280;56232;53.384;-2.732;2023-03-01T06:55:06;103080.46;;;5.41;42.14
69219;BME280;56232;53.384;-2.732;2023-03-01T06:57:30;103077.83;;;4.50;42.32
69219;BME280;56232;53.384;-2.732;2023-03-01T06:59:56;103079.77;;;5.69;42.53
69219;BME280;56232;53.384;-2.732;2023-03-01T07:02:22;103084.54;;;4.76;42.50
69219;BME280;56232;53.384;-2.732;2023-03-01T07:04:49;103081.78;;;4.80;42.46
69219;BME280;56232;53.384;-2.732;2023-03-01T07:07:13;103081.66;;;4.20;42.32
69219;BME280;56232;53.384;-2.732;2023-03-01T07:09:39;103081.18;;;4.73;42.48
69219;BME280;56232;53.384;-2.732;2023-03-01T07:12:05;103081.41;;;4.74;42.48
69219;BME280;56232;53.384;-2.732;2023-03-01T07:14:30;103077.31;;;4.78;42.42
69219;BME280;56232;53.384;-2.732;2023-03-01T07:16:56;103075.14;;;4.12;42.24
69219;BME280;56232;53.384;-2.732;2023-03-01T07:19:22;103078.37;;;4.57;41.38
69219;BME280;56232;53.384;-2.732;2023-03-01T07:21:47;103082.02;;;4.43;41.64
69219;BME280;56232;53.384;-2.732;2023-03-01T07:24:13;103087.36;;;4.75;41.91
69219;BME280;56232;53.384;-2.732;2023-03-01T07:26:39;103089.35;;;4.76;41.67
69219;BME280;56232;53.384;-2.732;2023-03-01T07:29:06;103085.16;;;4.89;41.58
69219;BME280;56232;53.384;-2.732;2023-03-01T07:31:30;103078.82;;;4.52;41.51
69219;BME280;56232;53.384;-2.732;2023-03-01T07:33:56;103077.93;;;4.49;41.40
69219;BME280;56232;53.384;-2.732;2023-03-01T07:36:22;103076.29;;;4.36;41.40
69219;BME280;56232;53.384;-2.732;2023-03-01T07:38:47;103078.79;;;4.25;41.62
69219;BME280;56232;53.384;-2.732;2023-03-01T07:41:13;103078.07;;;4.15;41.68
69219;BME280;56232;53.384;-2.732;2023-03-01T07:43:39;103081.11;;;5.34;41.81
69219;BME280;56232;53.384;-2.732;2023-03-01T07:46:04;103083.43;;;4.33;41.76
69219;BME280;56232;53.384;-2.732;2023-03-01T07:48:31;103085.58;;;4.98;41.02
69219;BME280;56232;53.384;-2.732;2023-03-01T07:50:58;103081.37;;;5.16;41.54
69219;BME280;56232;53.384;-2.732;2023-03-01T07:53:21;103080.47;;;4.79;41.39
69219;BME280;56232;53.384;-2.732;2023-03-01T07:55:47;103083.42;;;4.92;41.71
69219;BME280;56232;53.384;-2.732;2023-03-01T07:58:13;103085.37;;;5.14;41.11
69219;BME280;56232;53.384;-2.732;2023-03-01T08:00:38;103079.52;;;5.26;40.82
69219;BME280;56232;53.384;-2.732;2023-03-01T08:03:04;103081.39;;;5.35;40.79
69219;BME280;56232;53.384;-2.732;2023-03-01T08:05:30;103083.18;;;4.79;40.59
69219;BME280;56232;53.384;-2.732;2023-03-01T08:07:56;103085.26;;;5.52;40.34
69219;BME280;56232;53.384;-2.732;2023-03-01T08:10:21;103086.22;;;4.95;40.38
69219;BME280;56232;53.384;-2.732;2023-03-01T08:12:46;103083.41;;;5.40;40.41
69219;BME280;56232;53.384;-2.732;2023-03-01T08:15:12;103080.62;;;5.59;39.99
69219;BME280;56232;53.384;-2.732;2023-03-01T08:17:37;103074.99;;;5.38;39.97
69219;BME280;56232;53.384;-2.732;2023-03-01T08:20:04;103078.80;;;6.15;39.82
69219;BME280;56232;53.384;-2.732;2023-03-01T08:22:29;103082.12;;;5.62;39.70
69219;BME280;56232;53.384;-2.732;2023-03-01T08:24:54;103083.13;;;6.19;39.80
69219;BME280;56232;53.384;-2.732;2023-03-01T08:27:20;103090.85;;;6.85;39.81
69219;BME280;56232;53.384;-2.732;2023-03-01T08:29:46;103090.42;;;5.76;40.13
69219;BME280;56232;53.384;-2.732;2023-03-01T08:32:12;103095.69;;;6.42;39.63
69219;BME280;56232;53.384;-2.732;2023-03-01T08:34:38;103094.91;;;6.41;39.38
69219;BME280;56232;53.384;-2.732;2023-03-01T08:37:03;103095.68;;;6.41;39.13
69219;BME280;56232;53.384;-2.732;2023-03-01T08:39:29;103098.10;;;5.96;39.48
69219;BME280;56232;53.384;-2.732;2023-03-01T08:41:55;103095.07;;;6.73;39.51
69219;BME280;56232;53.384;-2.732;2023-03-01T08:44:21;103088.47;;;6.65;39.09
69219;BME280;56232;53.384;-2.732;2023-03-01T08:46:47;103083.33;;;7.24;39.07
69219;BME280;56232;53.384;-2.732;2023-03-01T08:49:14;103079.93;;;7.61;39.04
69219;BME280;56232;53.384;-2.732;2023-03-01T08:51:38;103078.83;;;6.57;38.88
69219;BME280;56232;53.384;-2.732;2023-03-01T08:54:04;103082.24;;;7.45;39.47
69219;BME280;56232;53.384;-2.732;2023-03-01T08:56:30;103082.78;;;6.88;39.11
69219;BME280;56232;53.384;-2.732;2023-03-01T08:58:55;103083.29;;;6.90;39.53
69219;BME280;56232;53.384;-2.732;2023-03-01T09:01:21;103081.41;;;7.23;39.16
69219;BME280;56232;53.384;-2.732;2023-03-01T09:03:47;103075.64;;;7.42;38.79
69219;BME280;56232;53.384;-2.732;2023-03-01T09:06:14;103075.16;;;7.61;38.17
69219;BME280;56232;53.384;-2.732;2023-03-01T09:08:40;103076.20;;;7.17;38.57
69219;BME280;56232;53.384;-2.732;2023-03-01T09:11:06;103073.09;;;7.93;39.26
69219;BME280;56232;53.384;-2.732;2023-03-01T09:13:30;103070.78;;;8.50;38.06
69219;BME280;56232;53.384;-2.732;2023-03-01T09:15:55;103073.98;;;8.58;38.21
69219;BME280;56232;53.384;-2.732;2023-03-01T09:18:21;103072.01;;;8.38;38.11
69219;BME280;56232;53.384;-2.732;2023-03-01T09:20:47;103079.98;;;8.70;38.38
69219;BME280;56232;53.384;-2.732;2023-03-01T09:23:12;103082.77;;;7.72;37.84
69219;BME280;56232;53.384;-2.732;2023-03-01T09:25:38;103084.25;;;8.27;38.23
69219;BME280;56232;53.384;-2.732;2023-03-01T09:28:04;103083.69;;;8.32;38.33
69219;BME280;56232;53.384;-2.732;2023-03-01T09:30:30;103078.95;;;8.16;38.23
69219;BME280;56232;53.384;-2.732;2023-03-01T09:32:56;103081.34;;;8.24;37.08
69219;BME280;56232;53.384;-2.732;2023-03-01T09:35:21;103078.77;;;8.16;37.26
69219;BME280;56232;53.384;-2.732;2023-03-01T09:37:47;103079.85;;;8.66;37.79
69219;BME280;56232;53.384;-2.732;2023-03-01T09:40:16;103082.88;;;8.19;37.43
69219;BME280;56232;53.384;-2.732;2023-03-01T09:42:49;103080.27;;;8.22;37.70
69219;BME280;56232;53.384;-2.732;2023-03-01T09:45:06;103083.08;;;8.04;37.74
69219;BME280;56232;53.384;-2.732;2023-03-01T09:47:32;103078.90;;;7.68;37.83
69219;BME280;56232;53.384;-2.732;2023-03-01T09:50:03;103077.83;;;8.64;38.02
69219;BME280;56232;53.384;-2.732;2023-03-01T09:52:26;103077.32;;;8.61;37.75
69219;BME280;56232;53.384;-2.732;2023-03-01T09:54:50;103076.41;;;8.06;38.16
69219;BME280;56232;53.384;-2.732;2023-03-01T09:57:18;103076.88;;;8.63;37.92
69219;BME280;56232;53.384;-2.732;2023-03-01T09:59:51;103072.42;;;7.42;37.36
69219;BME280;56232;53.384;-2.732;2023-03-01T10:02:16;103074.45;;;8.19;37.59
69219;BME280;56232;53.384;-2.732;2023-03-01T10:04:40;103069.87;;;7.46;37.76
69219;BME280;56232;53.384;-2.732;2023-03-01T10:07:05;103065.76;;;7.80;37.06
69219;BME280;56232;53.384;-2.732;2023-03-01T10:09:21;103062.78;;;8.36;37.22
69219;BME280;56232;53.384;-2.732;2023-03-01T10:11:49;103061.56;;;7.94;37.71
69219;BME280;56232;53.384;-2.732;2023-03-01T10:14:18;103059.53;;;7.91;37.50
69219;BME280;56232;53.384;-2.732;2023-03-01T10:16:43;103058.82;;;8.15;37.20
69219;BME280;56232;53.384;-2.732;2023-03-01T10:19:05;103059.36;;;8.57;37.42
69219;BME280;56232;53.384;-2.732;2023-03-01T10:21:30;103055.20;;;8.17;37.27
69219;BME280;56232;53.384;-2.732;2023-03-01T10:23:59;103050.85;;;8.16;36.73
69219;BME280;56232;53.384;-2.732;2023-03-01T10:26:33;103043.09;;;8.16;37.04
69219;BME280;56232;53.384;-2.732;2023-03-01T10:28:53;103043.66;;;7.89;37.34
69219;BME280;56232;53.384;-2.732;2023-03-01T10:31:15;103035.64;;;7.50;37.74
69219;BME280;56232;53.384;-2.732;2023-03-01T10:33:38;103035.23;;;8.03;38.04
69219;BME280;56232;53.384;-2.732;2023-03-01T10:36:05;103027.50;;;7.36;38.08
69219;BME280;56232;53.384;-2.732;2023-03-01T10:38:31;103021.84;;;7.24;37.89
69219;BME280;56232;53.384;-2.732;2023-03-01T10:40:58;103017.73;;;6.65;38.10
69219;BME280;56232;53.384;-2.732;2023-03-01T10:43:22;103011.79;;;7.38;37.59
69219;BME280;56232;53.384;-2.732;2023-03-01T10:45:48;103003.78;;;7.16;37.48
69219;BME280;56232;53.384;-2.732;2023-03-01T10:48:15;103004.66;;;7.35;37.71
69219;BME280;56232;53.384;-2.732;2023-03-01T10:50:39;102998.71;;;7.87;37.26
69219;BME280;56232;53.384;-2.732;2023-03-01T10:53:04;102996.07;;;8.70;36.28
69219;BME280;56232;53.384;-2.732;2023-03-01T10:55:34;102991.03;;;8.77;35.63
69219;BME280;56232;53.384;-2.732;2023-03-01T11:00:24;102990.08;;;9.98;35.23
69219;BME280;56232;53.384;-2.732;2023-03-01T11:02:49;102991.75;;;9.98;34.79
69219;BME280;56232;53.384;-2.732;2023-03-01T11:05:20;102988.70;;;10.70;35.00
69219;BME280;56232;53.384;-2.732;2023-03-01T11:07:47;102983.68;;;10.41;34.18
69219;BME280;56232;53.384;-2.732;2023-03-01T11:10:11;102979.22;;;10.75;34.69
69219;BME280;56232;53.384;-2.732;2023-03-01T11:12:30;102974.70;;;10.07;34.06
69219;BME280;56232;53.384;-2.732;2023-03-01T11:14:55;102973.64;;;10.50;35.09
69219;BME280;56232;53.384;-2.732;2023-03-01T11:17:23;102973.51;;;9.25;35.89
69219;BME280;56232;53.384;-2.732;2023-03-01T11:22:14;102973.70;;;9.23;36.44
69219;BME280;56232;53.384;-2.732;2023-03-01T11:24:41;102973.57;;;8.54;35.98
69219;BME280;56232;53.384;-2.732;2023-03-01T11:27:14;102972.98;;;9.14;36.30
69219;BME280;56232;53.384;-2.732;2023-03-01T11:29:34;102971.73;;;9.40;36.56
69219;BME280;56232;53.384;-2.732;2023-03-01T11:31:59;102969.19;;;8.42;36.17
69219;BME280;56232;53.384;-2.732;2023-03-01T11:34:25;102968.24;;;8.56;35.81
69219;BME280;56232;53.384;-2.732;2023-03-01T11:36:51;102966.50;;;9.48;36.25
69219;BME280;56232;53.384;-2.732;2023-03-01T11:39:18;102964.87;;;9.15;36.62
69219;BME280;56232;53.384;-2.732;2023-03-01T11:41:40;102965.51;;;9.16;36.88
69219;BME280;56232;53.384;-2.732;2023-03-01T11:44:10;102964.10;;;8.18;37.83
69219;BME280;56232;53.384;-2.732;2023-03-01T11:49:05;102952.41;;;8.31;38.08
69219;BME280;56232;53.384;-2.732;2023-03-01T11:51:25;102953.74;;;8.22;38.60
69219;BME280;56232;53.384;-2.732;2023-03-01T11:53:58;102951.13;;;7.95;38.74
69219;BME280;56232;53.384;-2.732;2023-03-01T11:56:22;102950.52;;;7.39;39.08
69219;BME280;56232;53.384;-2.732;2023-03-01T11:58:49;102953.78;;;7.78;38.83
69219;BME280;56232;53.384;-2.732;2023-03-01T12:01:22;102947.99;;;7.87;39.21
69219;BME280;56232;53.384;-2.732;2023-03-01T12:03:40;102943.85;;;7.96;38.51
69219;BME280;56232;53.384;-2.732;2023-03-01T12:06:05;102936.16;;;8.84;38.12
69219;BME280;56232;53.384;-2.732;2023-03-01T12:08:26;102931.73;;;8.35;38.12
69219;BME280;56232;53.384;-2.732;2023-03-01T12:10:55;102927.61;;;8.95;37.21
69219;BME280;56232;53.384;-2.732;2023-03-01T12:13:25;102925.82;;;9.05;36.37
69219;BME280;56232;53.384;-2.732;2023-03-01T12:15:48;102926.57;;;9.68;36.72
69219;BME280;56232;53.384;-2.732;2023-03-01T12:18:18;102926.06;;;10.18;36.92
69219;BME280;56232;53.384;-2.732;2023-03-01T12:20:35;102925.35;;;9.95;36.69
69219;BME280;56232;53.384;-2.732;2023-03-01T12:23:06;102917.64;;;10.00;36.77
69219;BME280;56232;53.384;-2.732;2023-03-01T12:25:27;102912.80;;;10.13;36.70
69219;BME280;56232;53.384;-2.732;2023-03-01T12:30:23;102905.64;;;9.15;37.35
69219;BME280;56232;53.384;-2.732;2023-03-01T12:32:43;102904.49;;;9.91;37.35
69219;BME280;56232;53.384;-2.732;2023-03-01T12:35:17;102900.50;;;10.25;37.10
69219;BME280;56232;53.384;-2.732;2023-03-01T12:37:36;102892.47;;;9.67;37.10
69219;BME280;56232;53.384;-2.732;2023-03-01T12:40:05;102889.22;;;10.32;36.47
69219;BME280;56232;53.384;-2.732;2023-03-01T12:42:27;102887.12;;;11.04;36.55
69219;BME280;56232;53.384;-2.732;2023-03-01T12:44:59;102879.57;;;10.95;36.36
69219;BME280;56232;53.384;-2.732;2023-03-01T12:47:21;102875.77;;;10.24;35.83
69219;BME280;56232;53.384;-2.732;2023-03-01T12:49:41;102870.57;;;11.59;35.26
69219;BME280;56232;53.384;-2.732;2023-03-01T12:52:10;102868.26;;;11.67;35.14
69219;BME280;56232;53.384;-2.732;2023-03-01T12:54:31;102867.13;;;11.82;35.56
69219;BME280;56232;53.384;-2.732;2023-03-01T12:56:57;102866.14;;;11.18;35.93